createdAt,value
2019-03-01T00:00:40.137Z,1004.05
2019-03-01T00:01:38.669Z,1004.03
2019-03-01T00:04:18.761Z,1003.97
2019-03-01T00:05:17.498Z,1003.99
2019-03-01T00:06:16.048Z,1003.99
2019-03-01T00:07:14.561Z,1003.95
2019-03-01T00:08:13.131Z,1004.01
2019-03-01T00:09:11.610Z,1004.01
2019-03-01T00:10:10.164Z,1003.96
2019-03-01T00:11:08.672Z,1003.99
2019-03-01T00:12:07.216Z,1004.02
2019-03-01T00:13:05.738Z,1003.91
2019-03-01T00:14:04.267Z,1003.95
2019-03-01T00:15:02.823Z,1003.96
2019-03-01T00:16:01.400Z,1003.91
2019-03-01T00:16:59.905Z,1003.9
2019-03-01T00:17:58.437Z,1003.83
2019-03-01T00:18:56.985Z,1003.88
2019-03-01T00:19:55.591Z,1003.93
2019-03-01T00:20:54.279Z,1003.91
2019-03-01T00:21:52.817Z,1003.93
2019-03-01T00:22:51.397Z,1003.94
2019-03-01T00:23:50.221Z,1003.96
2019-03-01T00:24:48.790Z,1003.9
2019-03-01T00:25:47.387Z,1003.82
2019-03-01T00:26:46.002Z,1003.86
2019-03-01T00:27:44.547Z,1003.78
2019-03-01T00:28:43.108Z,1003.79
2019-03-01T00:29:41.623Z,1003.72
2019-03-01T00:30:40.185Z,1003.74
2019-03-01T00:31:38.732Z,1003.75
2019-03-01T00:32:37.492Z,1003.77
2019-03-01T00:33:36.146Z,1003.77
2019-03-01T00:34:34.699Z,1003.73
2019-03-01T00:35:33.284Z,1003.75
2019-03-01T00:36:32.002Z,1003.74
2019-03-01T00:37:30.604Z,1003.76
2019-03-01T00:38:29.160Z,1003.76
2019-03-01T00:39:27.766Z,1003.73
2019-03-01T00:40:26.366Z,1003.76
2019-03-01T00:41:25.015Z,1003.75
2019-03-01T00:42:23.686Z,1003.77
2019-03-01T00:43:22.211Z,1003.77
2019-03-01T00:44:20.754Z,1003.8
2019-03-01T00:45:19.295Z,1003.74
2019-03-01T00:46:18.038Z,1003.76
2019-03-01T00:47:16.595Z,1003.81
2019-03-01T00:48:15.239Z,1003.76
2019-03-01T00:49:13.839Z,1003.7
2019-03-01T00:50:12.393Z,1003.68
2019-03-01T00:51:10.966Z,1003.71
2019-03-01T00:52:09.472Z,1003.76
2019-03-01T00:53:08.003Z,1003.73
2019-03-01T00:54:06.578Z,1003.78
2019-03-01T00:55:05.114Z,1003.66
2019-03-01T00:56:03.719Z,1003.71
2019-03-01T00:57:02.318Z,1003.77
2019-03-01T00:58:01.079Z,1003.75
2019-03-01T00:58:59.918Z,1003.77
2019-03-01T00:59:58.497Z,1003.74
2019-03-01T01:00:56.977Z,1003.68
2019-03-01T01:01:55.537Z,1003.61
2019-03-01T01:02:54.156Z,1003.62
2019-03-01T01:03:52.744Z,1003.64
2019-03-01T01:04:51.623Z,1003.63
2019-03-01T01:05:50.314Z,1003.65
2019-03-01T01:06:48.858Z,1003.7
2019-03-01T01:07:47.623Z,1003.68
2019-03-01T01:08:46.155Z,1003.63
2019-03-01T01:09:44.727Z,1003.63
2019-03-01T01:10:43.627Z,1003.65
2019-03-01T01:11:42.142Z,1003.72
2019-03-01T01:12:40.693Z,1003.71
2019-03-01T01:13:39.256Z,1003.64
2019-03-01T01:14:37.998Z,1003.58
2019-03-01T01:15:36.539Z,1003.55
2019-03-01T01:16:35.234Z,1003.51
2019-03-01T01:17:33.788Z,1003.48
2019-03-01T01:18:32.379Z,1003.47
2019-03-01T01:19:30.874Z,1003.44
2019-03-01T01:20:29.408Z,1003.44
2019-03-01T01:21:27.924Z,1003.45
2019-03-01T01:22:26.437Z,1003.39
2019-03-01T01:23:24.980Z,1003.4
2019-03-01T01:24:23.507Z,1003.42
2019-03-01T01:25:22.032Z,1003.39
2019-03-01T01:26:20.574Z,1003.33
2019-03-01T01:27:19.116Z,1003.37
2019-03-01T01:29:53.172Z,1003.36
2019-03-01T01:30:52.103Z,1003.38
2019-03-01T01:31:50.708Z,1003.39
2019-03-01T01:32:49.279Z,1003.35
2019-03-01T01:33:47.966Z,1003.32
2019-03-01T01:34:46.559Z,1003.32
2019-03-01T01:35:45.163Z,1003.26
2019-03-01T01:36:43.853Z,1003.24
2019-03-01T01:37:42.508Z,1003.24
2019-03-01T01:38:41.093Z,1003.23
2019-03-01T01:39:39.709Z,1003.19
2019-03-01T01:40:38.322Z,1003.16
2019-03-01T01:41:36.845Z,1003.11
2019-03-01T01:42:35.720Z,1003.11
2019-03-01T01:43:34.315Z,1003.17
2019-03-01T01:44:32.832Z,1003.18
2019-03-01T01:45:31.408Z,1003.17
2019-03-01T01:46:29.982Z,1003.22
2019-03-01T01:47:28.514Z,1003.22
2019-03-01T01:48:27.139Z,1003.14
2019-03-01T01:49:25.781Z,1003.15
2019-03-01T01:50:24.379Z,1003.13
2019-03-01T01:51:22.958Z,1003.18
2019-03-01T01:52:21.814Z,1003.12
2019-03-01T01:53:20.373Z,1003.14
2019-03-01T01:54:18.941Z,1003.09
2019-03-01T01:55:17.536Z,1003.1
2019-03-01T01:56:16.086Z,1003.1
2019-03-01T01:57:14.651Z,1003.08
2019-03-01T01:58:13.174Z,1003.09
2019-03-01T01:59:11.789Z,1003.07
2019-03-01T02:00:10.376Z,1003.07
2019-03-01T02:01:08.943Z,1003.03
2019-03-01T02:02:07.590Z,1002.99
2019-03-01T02:03:06.250Z,1003.04
2019-03-01T02:04:04.808Z,1003.01
2019-03-01T02:05:03.482Z,1003.02
2019-03-01T02:06:02.066Z,1003
2019-03-01T02:07:00.595Z,1003.03
2019-03-01T02:07:59.163Z,1003.03
2019-03-01T02:08:57.733Z,1002.99
2019-03-01T02:09:56.304Z,1002.99
2019-03-01T02:10:54.880Z,1002.98
2019-03-01T02:11:53.460Z,1003
2019-03-01T02:12:52.498Z,1003
2019-03-01T02:13:51.141Z,1002.98
2019-03-01T02:14:49.773Z,1002.99
2019-03-01T02:15:48.313Z,1002.95
2019-03-01T02:16:48.752Z,1002.94
2019-03-01T02:17:47.243Z,1003
2019-03-01T02:18:45.823Z,1002.94
2019-03-01T02:19:44.419Z,1002.96
2019-03-01T02:20:43.024Z,1002.93
2019-03-01T02:21:41.698Z,1002.96
2019-03-01T02:22:40.326Z,1002.99
2019-03-01T02:23:40.159Z,1002.95
2019-03-01T02:24:37.543Z,1002.97
2019-03-01T02:25:36.193Z,1002.98
2019-03-01T02:26:34.753Z,1002.94
2019-03-01T02:27:33.385Z,1002.91
2019-03-01T02:28:32.069Z,1002.91
2019-03-01T02:29:30.625Z,1002.9
2019-03-01T02:30:29.159Z,1002.89
2019-03-01T02:31:27.930Z,1002.81
2019-03-01T02:32:26.496Z,1002.82
2019-03-01T02:33:25.054Z,1002.8
2019-03-01T02:34:23.977Z,1002.78
2019-03-01T02:35:22.613Z,1002.85
2019-03-01T02:36:21.176Z,1002.8
2019-03-01T02:37:19.780Z,1002.75
2019-03-01T02:38:18.322Z,1002.77
2019-03-01T02:39:16.932Z,1002.72
2019-03-01T02:40:15.582Z,1002.7
2019-03-01T02:41:14.180Z,1002.63
2019-03-01T02:42:12.722Z,1002.66
2019-03-01T02:43:11.301Z,1002.65
2019-03-01T02:44:10.030Z,1002.63
2019-03-01T02:45:08.575Z,1002.61
2019-03-01T02:46:07.202Z,1002.62
2019-03-01T02:47:05.820Z,1002.61
2019-03-01T02:48:04.364Z,1002.61
2019-03-01T02:49:02.931Z,1002.55
2019-03-01T02:50:01.508Z,1002.51
2019-03-01T02:51:00.270Z,1002.47
2019-03-01T02:51:58.866Z,1002.48
2019-03-01T02:52:57.492Z,1002.5
2019-03-01T02:53:56.177Z,1002.51
2019-03-01T02:54:54.722Z,1002.45
2019-03-01T02:55:53.390Z,1002.43
2019-03-01T02:56:51.938Z,1002.43
2019-03-01T02:57:50.505Z,1002.44
2019-03-01T02:58:49.044Z,1002.41
2019-03-01T02:59:47.585Z,1002.45
2019-03-01T03:00:46.163Z,1002.37
2019-03-01T03:01:44.682Z,1002.37
2019-03-01T03:02:43.260Z,1002.34
2019-03-01T03:03:42.087Z,1002.34
2019-03-01T03:04:40.670Z,1002.26
2019-03-01T03:05:39.257Z,1002.24
2019-03-01T03:06:38.059Z,1002.23
2019-03-01T03:07:36.630Z,1002.23
2019-03-01T03:08:35.180Z,1002.24
2019-03-01T03:09:33.750Z,1002.21
2019-03-01T03:10:32.285Z,1002.21
2019-03-01T03:11:30.870Z,1002.21
2019-03-01T03:12:29.722Z,1002.23
2019-03-01T03:13:28.400Z,1002.2
2019-03-01T03:14:27.176Z,1002.22
2019-03-01T03:15:25.777Z,1002.17
2019-03-01T03:16:24.351Z,1002.15
2019-03-01T03:17:22.896Z,1002.11
2019-03-01T03:18:21.431Z,1002.13
2019-03-01T03:19:20.034Z,1002.14
2019-03-01T03:20:18.595Z,1002.1
2019-03-01T03:21:17.269Z,1002.1
2019-03-01T03:22:15.893Z,1002.05
2019-03-01T03:23:14.606Z,1002.09
2019-03-01T03:24:13.150Z,1002.05
2019-03-01T03:25:12.716Z,1002.04
2019-03-01T03:26:11.385Z,1001.99
2019-03-01T03:27:10.009Z,1002.01
2019-03-01T03:28:08.519Z,1002
2019-03-01T03:29:07.129Z,1002.01
2019-03-01T03:30:05.836Z,1001.93
2019-03-01T03:31:04.423Z,1001.98
2019-03-01T03:32:03.195Z,1001.95
2019-03-01T03:33:01.939Z,1001.98
2019-03-01T03:34:00.564Z,1001.98
2019-03-01T03:34:59.105Z,1001.91
2019-03-01T03:35:57.633Z,1001.99
2019-03-01T03:36:56.187Z,1001.94
2019-03-01T03:37:54.809Z,1001.94
2019-03-01T03:38:53.351Z,1001.94
2019-03-01T03:39:52.155Z,1001.93
2019-03-01T03:40:50.729Z,1001.94
2019-03-01T03:41:49.249Z,1001.85
2019-03-01T03:42:47.952Z,1001.86
2019-03-01T03:43:46.513Z,1001.85
2019-03-01T03:44:45.066Z,1001.81
2019-03-01T03:45:43.708Z,1001.86
2019-03-01T03:46:42.242Z,1001.83
2019-03-01T03:47:40.871Z,1001.81
2019-03-01T03:48:39.487Z,1001.85
2019-03-01T03:49:38.092Z,1001.81
2019-03-01T03:50:36.642Z,1001.85
2019-03-01T03:51:35.217Z,1001.75
2019-03-01T03:52:33.848Z,1001.76
2019-03-01T03:53:32.515Z,1001.81
2019-03-01T03:54:31.125Z,1001.78
2019-03-01T03:55:29.838Z,1001.78
2019-03-01T03:56:28.403Z,1001.76
2019-03-01T03:57:26.964Z,1001.74
2019-03-01T03:58:25.531Z,1001.68
2019-03-01T03:59:24.084Z,1001.7
2019-03-01T04:00:22.641Z,1001.67
2019-03-01T04:01:21.233Z,1001.66
2019-03-01T04:02:19.973Z,1001.66
2019-03-01T04:03:18.486Z,1001.64
2019-03-01T04:04:17.229Z,1001.62
2019-03-01T04:05:15.883Z,1001.59
2019-03-01T04:06:14.418Z,1001.59
2019-03-01T04:07:12.949Z,1001.64
2019-03-01T04:08:11.499Z,1001.63
2019-03-01T04:09:10.103Z,1001.6
2019-03-01T04:10:08.661Z,1001.6
2019-03-01T04:11:07.178Z,1001.58
2019-03-01T04:12:05.735Z,1001.62
2019-03-01T04:13:04.330Z,1001.62
2019-03-01T04:14:02.898Z,1001.58
2019-03-01T04:15:01.684Z,1001.55
2019-03-01T04:16:00.423Z,1001.58
2019-03-01T04:16:59.073Z,1001.6
2019-03-01T04:17:57.783Z,1001.56
2019-03-01T04:18:56.393Z,1001.55
2019-03-01T04:19:54.939Z,1001.58
2019-03-01T04:20:53.584Z,1001.56
2019-03-01T04:21:52.215Z,1001.6
2019-03-01T04:22:50.780Z,1001.59
2019-03-01T04:23:49.369Z,1001.66
2019-03-01T04:24:48.236Z,1001.62
2019-03-01T04:25:46.748Z,1001.64
2019-03-01T04:26:45.295Z,1001.62
2019-03-01T04:27:43.916Z,1001.54
2019-03-01T04:28:42.429Z,1001.51
2019-03-01T04:29:40.940Z,1001.45
2019-03-01T04:30:39.544Z,1001.45
2019-03-01T04:31:38.085Z,1001.5
2019-03-01T04:32:36.614Z,1001.47
2019-03-01T04:33:35.198Z,1001.42
2019-03-01T04:34:34.029Z,1001.4
2019-03-01T04:35:32.551Z,1001.41
2019-03-01T04:36:31.110Z,1001.45
2019-03-01T04:37:29.990Z,1001.48
2019-03-01T04:38:28.476Z,1001.42
2019-03-01T04:39:27.139Z,1001.42
2019-03-01T04:40:25.708Z,1001.35
2019-03-01T04:41:24.227Z,1001.4
2019-03-01T04:42:22.799Z,1001.38
2019-03-01T04:43:21.342Z,1001.39
2019-03-01T04:44:20.251Z,1001.41
2019-03-01T04:45:18.787Z,1001.39
2019-03-01T04:46:17.393Z,1001.38
2019-03-01T04:47:16.091Z,1001.3
2019-03-01T04:48:14.605Z,1001.32
2019-03-01T04:49:13.222Z,1001.26
2019-03-01T04:50:11.810Z,1001.29
2019-03-01T04:51:10.395Z,1001.25
2019-03-01T04:52:08.942Z,1001.3
2019-03-01T04:53:07.537Z,1001.31
2019-03-01T04:54:06.195Z,1001.24
2019-03-01T04:55:06.720Z,1001.22
2019-03-01T04:56:05.243Z,1001.22
2019-03-01T04:57:03.847Z,1001.18
2019-03-01T04:58:02.514Z,1001.23
2019-03-01T04:59:01.147Z,1001.21
2019-03-01T04:59:59.851Z,1001.2
2019-03-01T05:00:58.416Z,1001.23
2019-03-01T05:01:57.047Z,1001.27
2019-03-01T05:02:55.561Z,1001.2
2019-03-01T05:03:54.123Z,1001.17
2019-03-01T05:04:52.712Z,1001.17
2019-03-01T05:05:51.348Z,1001.13
2019-03-01T05:06:49.969Z,1001.13
2019-03-01T05:07:48.533Z,1001.06
2019-03-01T05:08:47.143Z,1001.05
2019-03-01T05:09:45.934Z,1001.1
2019-03-01T05:10:44.542Z,1001.05
2019-03-01T05:11:43.111Z,1001.1
2019-03-01T05:12:41.692Z,1001.02
2019-03-01T05:13:40.222Z,1001.03
2019-03-01T05:14:38.771Z,1001.04
2019-03-01T05:15:37.363Z,1001.02
2019-03-01T05:16:36.158Z,1001.09
2019-03-01T05:17:34.746Z,1001.12
2019-03-01T05:18:33.523Z,1001.1
2019-03-01T05:19:32.131Z,1001.16
2019-03-01T05:20:31.186Z,1001.12
2019-03-01T05:21:29.351Z,1001.09
2019-03-01T05:22:27.913Z,1001.12
2019-03-01T05:23:26.529Z,1001.12
2019-03-01T05:24:25.053Z,1001.07
2019-03-01T05:25:23.848Z,1001.06
2019-03-01T05:26:22.553Z,1001.03
2019-03-01T05:27:21.066Z,1001.08
2019-03-01T05:28:19.922Z,1001.04
2019-03-01T05:29:18.484Z,1001.04
2019-03-01T05:30:17.053Z,1001.07
2019-03-01T05:31:15.687Z,1001.06
2019-03-01T05:32:14.309Z,1000.96
2019-03-01T05:33:12.830Z,1000.97
2019-03-01T05:34:11.458Z,1000.95
2019-03-01T05:35:10.387Z,1000.93
2019-03-01T05:36:08.899Z,1000.96
2019-03-01T05:37:07.504Z,1000.99
2019-03-01T05:38:06.136Z,1001.03
2019-03-01T05:39:04.716Z,1001.09
2019-03-01T05:40:04.593Z,1001.03
2019-03-01T05:41:02.659Z,1001.13
2019-03-01T05:42:01.322Z,1001.1
2019-03-01T05:42:59.992Z,1001.13
2019-03-01T05:43:58.525Z,1001.16
2019-03-01T05:44:57.080Z,1001.09
2019-03-01T05:45:55.963Z,1001.11
2019-03-01T05:46:54.481Z,1001.08
2019-03-01T05:47:53.074Z,1001.06
2019-03-01T05:48:51.631Z,1001.09
2019-03-01T05:49:50.209Z,1001.05
2019-03-01T05:50:48.779Z,1001.05
2019-03-01T05:51:47.299Z,1001.11
2019-03-01T05:52:45.863Z,1001.07
2019-03-01T05:53:44.430Z,1001.08
2019-03-01T05:54:43.078Z,1001.04
2019-03-01T05:55:41.765Z,1001.07
2019-03-01T05:56:40.529Z,1001.03
2019-03-01T05:57:39.251Z,1001.03
2019-03-01T05:58:37.834Z,1001.02
2019-03-01T05:59:36.411Z,1000.95
2019-03-01T06:00:35.018Z,1000.96
2019-03-01T06:01:33.666Z,1000.95
2019-03-01T06:02:32.333Z,1000.99
2019-03-01T06:03:30.993Z,1000.96
2019-03-01T06:04:29.585Z,1000.94
2019-03-01T06:05:28.230Z,1000.94
2019-03-01T06:06:26.822Z,1000.91
2019-03-01T06:07:25.494Z,1000.94
2019-03-01T06:08:24.180Z,1000.95
2019-03-01T06:09:22.746Z,1000.89
2019-03-01T06:10:21.502Z,1000.89
2019-03-01T06:11:20.886Z,1000.89
2019-03-01T06:12:19.501Z,1000.98
2019-03-01T06:13:18.213Z,1000.85
2019-03-01T06:14:16.862Z,1000.92
2019-03-01T06:15:16.052Z,1000.89
2019-03-01T06:16:14.604Z,1000.97
2019-03-01T06:17:13.234Z,1000.93
2019-03-01T06:18:12.110Z,1000.97
2019-03-01T06:19:10.866Z,1000.95
2019-03-01T06:20:09.554Z,1000.94
2019-03-01T06:21:08.241Z,1000.95
2019-03-01T06:24:47.312Z,1001.04
2019-03-01T06:25:45.952Z,1001.06
2019-03-01T06:26:45.539Z,1001.02
2019-03-01T06:27:45.225Z,1000.99
2019-03-01T06:28:43.925Z,1001.04
2019-03-01T06:31:19.700Z,1001.02
2019-03-01T06:32:18.403Z,1001.02
2019-03-01T06:33:16.987Z,1001.03
2019-03-01T06:34:15.613Z,1001.1
2019-03-01T06:36:57.723Z,1001.06
2019-03-01T06:37:56.026Z,1001.06
2019-03-01T06:38:54.586Z,1001.04
2019-03-01T06:39:53.169Z,1001.05
2019-03-01T06:40:52.246Z,1001.03
2019-03-01T06:41:52.006Z,1001.01
2019-03-01T06:42:50.506Z,1001.04
2019-03-01T06:43:49.039Z,1001.03
2019-03-01T06:44:48.587Z,1001.02
2019-03-01T06:45:48.101Z,1001
2019-03-01T06:46:46.810Z,1001.06
2019-03-01T06:47:45.598Z,1000.96
2019-03-01T06:48:44.416Z,1001.03
2019-03-01T06:49:42.989Z,1001.01
2019-03-01T06:50:41.968Z,1001.05
2019-03-01T06:51:40.536Z,1001
2019-03-01T06:52:39.132Z,1001.02
2019-03-01T06:53:37.795Z,1001.01
2019-03-01T06:54:36.528Z,1001
2019-03-01T06:55:35.085Z,1001
2019-03-01T06:56:33.896Z,1000.99
2019-03-01T06:57:33.315Z,1001.01
2019-03-01T06:58:32.606Z,1001.05
2019-03-01T06:59:31.271Z,1000.99
2019-03-01T07:00:29.849Z,1000.97
2019-03-01T07:01:28.515Z,1000.96
2019-03-01T07:02:27.106Z,1000.94
2019-03-01T07:03:25.831Z,1000.95
2019-03-01T07:04:24.455Z,1000.95
2019-03-01T07:05:23.061Z,1000.97
2019-03-01T07:06:21.841Z,1000.99
2019-03-01T07:07:20.378Z,1000.97
2019-03-01T07:08:18.910Z,1001.01
2019-03-01T07:09:17.503Z,1000.96
2019-03-01T07:10:16.049Z,1000.9
2019-03-01T07:11:14.606Z,1000.86
2019-03-01T07:12:13.150Z,1000.89
2019-03-01T07:13:11.704Z,1000.87
2019-03-01T07:14:10.518Z,1000.94
2019-03-01T07:16:50.944Z,1000.92
2019-03-01T07:17:49.514Z,1000.92
2019-03-01T07:18:48.732Z,1000.93
2019-03-01T07:19:47.464Z,1000.93
2019-03-01T07:20:46.117Z,1000.88
2019-03-01T07:21:44.652Z,1000.9
2019-03-01T07:22:43.322Z,1000.99
2019-03-01T07:23:42.095Z,1000.98
2019-03-01T07:24:40.636Z,1000.94
2019-03-01T07:33:15.112Z,1000.84
2019-03-01T07:34:13.742Z,1000.88
2019-03-01T07:36:12.572Z,1000.84
2019-03-01T07:37:11.172Z,1000.87
2019-03-01T07:41:47.090Z,1000.91
2019-03-01T07:42:45.858Z,1000.92
2019-03-01T07:43:44.533Z,1000.96
2019-03-01T07:44:43.118Z,1000.97
2019-03-01T07:45:41.835Z,1000.93
2019-03-01T07:46:40.475Z,1000.92
2019-03-01T07:47:39.059Z,1000.98
2019-03-01T07:48:37.720Z,1001.01
2019-03-01T07:49:36.243Z,1000.98
2019-03-01T07:50:34.809Z,1001.05
2019-03-01T07:51:33.366Z,1001.06
2019-03-01T07:52:31.948Z,1000.93
2019-03-01T07:53:30.478Z,1000.97
2019-03-01T07:54:29.128Z,1000.97
2019-03-01T07:55:28.270Z,1001.01
2019-03-01T07:56:26.566Z,1001.01
2019-03-01T07:57:25.226Z,1001.05
2019-03-01T07:58:25.437Z,1001.01
2019-03-01T07:59:23.908Z,1001.07
2019-03-01T08:02:03.846Z,1001.06
2019-03-01T08:03:01.028Z,1001.05
2019-03-01T08:03:59.697Z,1001.06
2019-03-01T08:04:59.981Z,1001.08
2019-03-01T08:05:56.937Z,1001.08
2019-03-01T08:06:55.543Z,1001.14
2019-03-01T08:07:56.237Z,1001.1
2019-03-01T08:08:52.960Z,1001.08
2019-03-01T08:09:51.543Z,1001.1
2019-03-01T08:10:50.151Z,1001.11
2019-03-01T08:11:48.702Z,1001.14
2019-03-01T08:12:47.769Z,1001.13
2019-03-01T08:30:30.952Z,1001.05
2019-03-01T08:31:29.636Z,1001.05
2019-03-01T08:32:30.655Z,1001.03
2019-03-01T08:33:26.761Z,1001.04
2019-03-01T08:34:25.275Z,1001.03
2019-03-01T08:35:25.239Z,1000.99
2019-03-01T08:36:22.443Z,1000.98
2019-03-01T08:37:20.964Z,1001
2019-03-01T08:38:19.752Z,1001.04
2019-03-01T08:39:18.509Z,1000.99
2019-03-01T08:40:17.019Z,1001.02
2019-03-01T08:41:15.807Z,1001
2019-03-01T08:42:14.434Z,1001.03
2019-03-01T08:43:13.211Z,1001.06
2019-03-01T08:44:11.672Z,1001.07
2019-03-01T08:45:10.399Z,1001.09
2019-03-01T08:46:10.390Z,1001.03
2019-03-01T08:47:07.802Z,1001.02
2019-03-01T08:49:47.975Z,1001
2019-03-01T08:50:46.534Z,1001.02
2019-03-01T08:51:45.833Z,1000.96
2019-03-01T08:52:44.403Z,1001.06
2019-03-01T08:53:42.989Z,1001.04
2019-03-01T08:54:41.688Z,1001.02
2019-03-01T08:55:40.381Z,1001.01
2019-03-01T08:56:39.124Z,1001.05
2019-03-01T08:57:44.157Z,1001.07
2019-03-01T08:58:37.566Z,1001.08
2019-03-01T08:59:35.069Z,1001.04
2019-03-01T09:00:33.642Z,1001.04
2019-03-01T09:01:32.355Z,1001.12
2019-03-01T09:02:30.904Z,1001.03
2019-03-01T09:03:29.619Z,1001.09
2019-03-01T09:04:28.395Z,1001.07
2019-03-01T09:05:26.930Z,1001.07
2019-03-01T09:06:25.582Z,1001.11
2019-03-01T09:07:27.085Z,1001.1
2019-03-01T09:08:22.987Z,1001.2
2019-03-01T09:09:21.966Z,1001.16
2019-03-01T09:10:20.177Z,1001.2
2019-03-01T09:11:18.769Z,1001.23
2019-03-01T09:12:17.335Z,1001.17
2019-03-01T09:13:16.164Z,1001.22
2019-03-01T09:14:14.711Z,1001.14
2019-03-01T09:15:13.974Z,1001.18
2019-03-01T09:16:12.595Z,1001.19
2019-03-01T09:17:11.440Z,1001.19
2019-03-01T09:18:11.459Z,1001.24
2019-03-01T09:19:08.839Z,1001.22
2019-03-01T09:20:07.468Z,1001.15
2019-03-01T09:21:06.346Z,1001.16
2019-03-01T09:22:04.755Z,1001.17
2019-03-01T09:23:16.182Z,1001.13
2019-03-01T09:24:01.932Z,1001.18
2019-03-01T09:25:02.403Z,1001.16
2019-03-01T09:25:59.081Z,1001.18
2019-03-01T09:26:57.881Z,1001.22
2019-03-01T09:27:57.616Z,1001.21
2019-03-01T09:28:55.164Z,1001.21
2019-03-01T09:29:56.129Z,1001.26
2019-03-01T09:30:52.415Z,1001.24
2019-03-01T09:31:54.209Z,1001.3
2019-03-01T09:32:50.704Z,1001.26
2019-03-01T09:33:49.263Z,1001.26
2019-03-01T09:34:47.852Z,1001.23
2019-03-01T09:35:46.734Z,1001.24
2019-03-01T09:36:45.322Z,1001.29
2019-03-01T09:37:43.984Z,1001.28
2019-03-01T09:38:43.605Z,1001.25
2019-03-01T09:39:41.178Z,1001.25
2019-03-01T09:40:39.796Z,1001.28
2019-03-01T09:41:40.397Z,1001.28
2019-03-01T09:42:36.916Z,1001.28
2019-03-01T09:43:35.606Z,1001.27
2019-03-01T09:44:37.999Z,1001.28
2019-03-01T09:45:36.401Z,1001.28
2019-03-01T09:46:32.689Z,1001.36
2019-03-01T09:47:33.477Z,1001.34
2019-03-01T09:48:30.677Z,1001.38
2019-03-01T09:49:29.336Z,1001.35
2019-03-01T09:50:31.564Z,1001.41
2019-03-01T09:51:27.109Z,1001.36
2019-03-01T09:52:25.705Z,1001.34
2019-03-01T09:53:24.248Z,1001.42
2019-03-01T09:54:23.217Z,1001.41
2019-03-01T09:55:22.209Z,1001.37
2019-03-01T09:56:20.867Z,1001.37
2019-03-01T09:57:19.748Z,1001.37
2019-03-01T09:58:18.487Z,1001.37
2019-03-01T09:59:17.110Z,1001.45
2019-03-01T10:00:15.753Z,1001.44
2019-03-01T10:01:14.348Z,1001.46
2019-03-01T10:02:13.813Z,1001.46
2019-03-01T10:03:12.379Z,1001.41
2019-03-01T10:04:10.942Z,1001.47
2019-03-01T10:05:09.905Z,1001.4
2019-03-01T10:06:08.681Z,1001.41
2019-03-01T10:07:07.290Z,1001.38
2019-03-01T10:08:07.647Z,1001.45
2019-03-01T10:09:04.844Z,1001.42
2019-03-01T10:10:03.304Z,1001.39
2019-03-01T10:11:02.248Z,1001.41
2019-03-01T10:12:00.796Z,1001.4
2019-03-01T10:12:59.389Z,1001.41
2019-03-01T10:13:57.969Z,1001.35
2019-03-01T10:14:56.520Z,1001.45
2019-03-01T10:15:55.050Z,1001.47
2019-03-01T10:16:53.644Z,1001.41
2019-03-01T10:17:52.279Z,1001.43
2019-03-01T10:18:50.920Z,1001.41
2019-03-01T10:19:49.607Z,1001.47
2019-03-01T10:20:48.241Z,1001.47
2019-03-01T10:21:46.915Z,1001.49
2019-03-01T10:22:45.551Z,1001.5
2019-03-01T10:23:44.147Z,1001.56
2019-03-01T10:24:42.694Z,1001.57
2019-03-01T10:25:41.218Z,1001.57
2019-03-01T10:26:39.799Z,1001.66
2019-03-01T10:27:38.353Z,1001.6
2019-03-01T10:28:36.969Z,1001.62
2019-03-01T10:29:35.612Z,1001.63
2019-03-01T10:30:34.282Z,1001.66
2019-03-01T10:31:32.832Z,1001.65
2019-03-01T10:32:31.385Z,1001.71
2019-03-01T10:33:29.998Z,1001.66
2019-03-01T10:34:28.634Z,1001.76
2019-03-01T10:35:27.206Z,1001.71
2019-03-01T10:36:25.875Z,1001.71
2019-03-01T10:37:24.408Z,1001.7
2019-03-01T10:38:22.945Z,1001.75
2019-03-01T10:39:21.545Z,1001.8
2019-03-01T10:40:20.345Z,1001.8
2019-03-01T10:41:18.961Z,1001.84
2019-03-01T10:42:17.621Z,1001.75
2019-03-01T10:43:16.312Z,1001.72
2019-03-01T10:44:14.910Z,1001.7
2019-03-01T10:45:13.508Z,1001.75
2019-03-01T10:46:12.093Z,1001.74
2019-03-01T10:47:10.739Z,1001.79
2019-03-01T10:48:09.460Z,1001.8
2019-03-01T10:49:08.317Z,1001.81
2019-03-01T10:50:06.885Z,1001.81
2019-03-01T10:51:05.568Z,1001.79
2019-03-01T10:52:04.165Z,1001.79
2019-03-01T10:53:02.700Z,1001.86
2019-03-01T10:54:01.322Z,1001.83
2019-03-01T10:55:00.280Z,1001.84
2019-03-01T10:55:58.705Z,1001.85
2019-03-01T10:56:57.252Z,1001.87
2019-03-01T10:57:56.054Z,1001.88
2019-03-01T10:58:54.584Z,1001.9
2019-03-01T10:59:53.166Z,1001.92
2019-03-01T11:00:51.721Z,1001.9
2019-03-01T11:06:48.686Z,1001.97
2019-03-01T11:07:47.226Z,1001.97
2019-03-01T11:08:45.872Z,1002.02
2019-03-01T11:09:44.578Z,1002.03
2019-03-01T11:10:43.183Z,1002.07
2019-03-01T11:11:41.822Z,1002.06
2019-03-01T11:33:14.190Z,1002.09
2019-03-01T11:34:12.722Z,1002.12
2019-03-01T11:35:11.282Z,1002.08
2019-03-01T11:36:10.093Z,1002.15
2019-03-01T11:37:08.659Z,1002.1
2019-03-01T11:38:07.250Z,1002.13
2019-03-01T11:39:05.811Z,1002.15
2019-03-01T11:40:04.391Z,1002.13
2019-03-01T11:41:03.031Z,1002.13
2019-03-01T11:42:01.720Z,1002.12
2019-03-01T11:43:00.300Z,1002.2
2019-03-01T11:43:58.917Z,1002.15
2019-03-01T11:44:57.465Z,1002.18
2019-03-01T11:45:56.275Z,1002.18
2019-03-01T11:46:54.837Z,1002.12
2019-03-01T11:47:53.410Z,1002.16
2019-03-01T11:48:51.952Z,1002.17
2019-03-01T11:49:50.721Z,1002.14
2019-03-01T11:50:49.292Z,1002.14
2019-03-01T11:51:47.894Z,1002.17
2019-03-01T11:52:46.560Z,1002.17
2019-03-01T11:53:45.222Z,1002.23
2019-03-01T11:54:43.890Z,1002.21
2019-03-01T11:57:24.072Z,1002.24
2019-03-01T11:58:22.637Z,1002.28
2019-03-01T11:59:21.286Z,1002.3
2019-03-01T12:00:19.870Z,1002.25
2019-03-01T12:01:18.591Z,1002.24
2019-03-01T12:02:17.147Z,1002.27
2019-03-01T12:03:15.869Z,1002.28
2019-03-01T12:04:14.581Z,1002.26
2019-03-01T12:05:13.169Z,1002.26
2019-03-01T12:06:11.928Z,1002.23
2019-03-01T12:07:10.543Z,1002.26
2019-03-01T12:11:50.414Z,1002.23
2019-03-01T12:12:48.973Z,1002.25
2019-03-01T12:18:58.053Z,1002.25
2019-03-01T12:19:56.613Z,1002.2
2019-03-01T12:20:55.170Z,1002.21
2019-03-01T12:21:53.677Z,1002.22
2019-03-01T12:22:52.222Z,1002.24
2019-03-01T12:23:50.856Z,1002.17
2019-03-01T12:25:59.599Z,1002.15
2019-03-01T12:28:40.032Z,1002.21
2019-03-01T12:31:20.154Z,1002.17
2019-03-01T12:57:01.821Z,1002.19
2019-03-01T13:03:18.219Z,1002.13
2019-03-01T13:04:18.561Z,1002.13
2019-03-01T13:05:15.697Z,1002.15
2019-03-01T13:06:14.347Z,1002.16
2019-03-01T13:08:12.472Z,1002.19
2019-03-01T13:11:54.596Z,1002.16
2019-03-01T13:12:54.637Z,1002.18
2019-03-01T13:16:07.683Z,1002.21
2019-03-01T13:17:06.519Z,1002.15
2019-03-01T13:18:05.114Z,1002.18
2019-03-01T13:19:03.782Z,1002.19
2019-03-01T13:23:37.491Z,1002.07
2019-03-01T13:26:34.100Z,1002.04
2019-03-01T13:28:49.969Z,1002.03
2019-03-01T13:29:48.542Z,1002.06
2019-03-01T13:30:47.079Z,1002.05
2019-03-01T13:33:27.256Z,1002.1
2019-03-01T13:34:26.742Z,1002.09
2019-03-01T13:35:25.878Z,1002.09
2019-03-01T13:36:23.554Z,1002.06
2019-03-01T13:39:04.406Z,1002.12
2019-03-01T13:40:03.305Z,1002.08
2019-03-01T13:42:47.124Z,1002.09
2019-03-01T13:43:42.416Z,1002.1
2019-03-01T13:44:40.954Z,1002.11
2019-03-01T13:45:39.645Z,1002.08
2019-03-01T13:46:38.869Z,1002.11
2019-03-01T13:47:37.404Z,1002.11
2019-03-01T13:48:36.017Z,1002.13
2019-03-01T13:49:34.829Z,1002.09
2019-03-01T13:50:33.523Z,1002.16
2019-03-01T13:51:32.508Z,1002.14
2019-03-01T13:52:31.424Z,1002.14
2019-03-01T13:53:33.129Z,1002.15
2019-03-01T13:54:28.931Z,1002.18
2019-03-01T13:55:27.766Z,1002.18
2019-03-01T13:58:08.066Z,1002.11
2019-03-01T14:00:30.714Z,1002.16
2019-03-01T14:01:29.298Z,1002.16
2019-03-01T14:27:18.177Z,1002.28
2019-03-01T14:28:16.795Z,1002.31
2019-03-01T14:29:15.941Z,1002.31
2019-03-01T14:30:14.025Z,1002.38
2019-03-01T14:31:12.616Z,1002.34
2019-03-01T14:32:11.336Z,1002.41